Time;durP1;ratioP1;P1;durP2;ratioP2;P2;SDS_P1;SDS_P2;PMS_P1;PMS_P2;Temp;Humidity;BMP_temperature;BMP_pressure;BME280_temperature;BME280_humidity;BME280_pressure;Samples;Min_cycle;Max_cycle;Signal;HPM_P1;HPM_P2
2023/03/15 00:00:43;;;;;;;1.15;0.70;;;4.50;99.90;;;;;;4974142;28;20390;-74
2023/03/15 00:03:09;;;;;;;2.80;0.85;;;4.50;99.90;;;;;;4973405;28;20039;-74
2023/03/15 00:05:36;;;;;;;2.00;1.42;;;4.50;99.90;;;;;;4974395;28;20030;-74
2023/03/15 00:08:01;;;;;;;5.07;1.08;;;4.40;99.90;;;;;;4958077;28;20530;-74
2023/03/15 00:10:28;;;;;;;3.60;1.98;;;4.40;99.90;;;;;;4974411;28;20121;-73
2023/03/15 00:12:54;;;;;;;1.40;0.52;;;4.50;99.90;;;;;;4957451;28;20487;-74
2023/03/15 00:15:20;;;;;;;1.20;0.63;;;4.50;99.90;;;;;;4970040;28;20037;-74
2023/03/15 00:17:46;;;;;;;0.90;0.50;;;4.50;99.90;;;;;;4991477;28;20385;-74
2023/03/15 00:20:18;;;;;;;1.30;0.50;;;4.40;99.90;;;;;;4949046;28;20038;-74
2023/03/15 00:22:44;;;;;;;0.75;0.47;;;4.40;99.90;;;;;;4964209;28;20041;-74
2023/03/15 00:25:10;;;;;;;2.75;1.38;;;4.40;99.90;;;;;;4962119;28;20030;-74
2023/03/15 00:27:36;;;;;;;12.38;0.88;;;4.50;99.90;;;;;;4965469;28;20046;-74
2023/03/15 00:30:02;;;;;;;3.15;1.00;;;4.40;99.90;;;;;;4991341;28;20022;-74
2023/03/15 00:32:28;;;;;;;1.35;0.50;;;4.40;99.90;;;;;;4970727;28;20034;-74
2023/03/15 00:34:54;;;;;;;0.85;0.40;;;4.30;99.90;;;;;;4976426;28;20042;-73
2023/03/15 00:37:24;;;;;;;1.42;0.50;;;4.20;99.90;;;;;;5004509;28;20023;-73
2023/03/15 00:39:50;;;;;;;1.60;0.60;;;4.20;99.90;;;;;;4964652;28;20416;-73
2023/03/15 00:42:16;;;;;;;1.52;1.27;;;4.20;99.90;;;;;;4967086;28;20039;-73
2023/03/15 00:44:46;;;;;;;0.52;0.52;;;4.10;99.90;;;;;;4979371;28;20038;-73
2023/03/15 00:47:13;;;;;;;1.13;0.73;;;4.00;99.90;;;;;;4974518;28;20054;-73
2023/03/15 00:49:40;;;;;;;1.73;0.52;;;4.00;99.90;;;;;;4985059;28;20089;-74
2023/03/15 00:52:06;;;;;;;2.22;0.70;;;3.90;99.90;;;;;;4957100;28;20453;-74
2023/03/15 00:54:32;;;;;;;6.70;1.08;;;3.80;99.90;;;;;;4985142;28;20156;-74
2023/03/15 00:57:02;;;;;;;6.03;0.55;;;3.80;99.90;;;;;;4970186;28;20034;-74
2023/03/15 00:59:33;;;;;;;1.67;0.75;;;3.70;99.90;;;;;;4969390;28;20390;-74
2023/03/15 01:02:01;;;;;;;7.13;0.80;;;3.70;99.90;;;;;;4972474;28;20125;-74
2023/03/15 01:04:27;;;;;;;1.00;0.47;;;3.60;99.90;;;;;;4989270;28;20038;-74
2023/03/15 01:06:52;;;;;;;0.30;0.30;;;3.60;99.90;;;;;;4987223;28;20560;-74
2023/03/15 01:09:18;;;;;;;0.30;0.30;;;3.60;99.90;;;;;;4986728;28;20719;-74
2023/03/15 01:11:44;;;;;;;1.02;0.35;;;3.50;99.90;;;;;;4989127;28;20030;-73
2023/03/15 01:14:09;;;;;;;13.13;1.48;;;3.60;99.90;;;;;;4990287;28;20041;-73
2023/03/15 01:16:36;;;;;;;1.25;0.75;;;3.50;99.90;;;;;;4976844;28;20030;-74
2023/03/15 01:19:01;;;;;;;2.33;0.50;;;3.50;99.90;;;;;;4992525;28;20038;-74
2023/03/15 01:21:27;;;;;;;6.63;0.60;;;3.50;99.90;;;;;;4976967;28;20026;-73
2023/03/15 01:23:53;;;;;;;1.15;0.88;;;3.50;99.90;;;;;;4992021;28;20034;-74
2023/03/15 01:26:19;;;;;;;0.55;0.45;;;3.40;99.90;;;;;;4976616;28;20193;-74
2023/03/15 01:28:46;;;;;;;1.08;0.60;;;3.40;99.90;;;;;;4993644;28;20498;-75
2023/03/15 01:31:28;;;;;;;2.03;0.77;;;3.30;99.90;;;;;;4975298;28;20045;-75
2023/03/15 01:33:56;;;;;;;9.75;0.75;;;3.20;99.90;;;;;;4972656;28;20565;-73
2023/03/15 01:36:22;;;;;;;2.08;1.05;;;3.20;99.90;;;;;;4976220;28;20037;-73
2023/03/15 01:38:48;;;;;;;3.30;1.17;;;3.20;99.90;;;;;;4976184;28;20027;-74
2023/03/15 01:41:16;;;;;;;1.08;0.50;;;3.20;99.90;;;;;;4993516;28;20042;-74
2023/03/15 01:43:46;;;;;;;4.57;1.30;;;3.30;99.90;;;;;;4976258;28;20504;-73
2023/03/15 01:46:33;;;;;;;6.03;1.15;;;3.30;99.90;;;;;;4976422;28;20032;-74
2023/03/15 01:49:11;;;;;;;0.17;0.17;;;3.20;99.90;;;;;;4987248;28;20060;-74
2023/03/15 01:52:20;;;;;;;5.65;0.38;;;3.10;99.90;;;;;;4976581;28;20026;-73
2023/03/15 01:54:57;;;;;;;1.77;0.68;;;3.10;99.90;;;;;;4926422;29;20207;-74
2023/03/15 01:57:48;;;;;;;2.22;0.43;;;3.00;99.90;;;;;;4911782;29;20792;-73
2023/03/15 02:00:20;;;;;;;0.70;0.55;;;3.00;99.90;;;;;;4907774;29;20567;-73
2023/03/15 02:02:59;;;;;;;1.05;0.85;;;2.90;99.90;;;;;;4906432;29;20130;-73
2023/03/15 02:05:32;;;;;;;5.43;0.75;;;2.80;99.90;;;;;;4908854;29;20052;-74
2023/03/15 02:07:59;;;;;;;11.45;1.30;;;2.80;99.90;;;;;;4913720;29;20046;-74
2023/03/15 02:10:48;;;;;;;1.52;0.75;;;2.80;99.90;;;;;;4918005;29;20036;-73
2023/03/15 02:13:21;;;;;;;7.03;1.58;;;2.70;99.90;;;;;;4932367;29;20056;-73
2023/03/15 02:15:47;;;;;;;1.92;1.17;;;2.70;99.90;;;;;;4917610;29;20044;-73
2023/03/15 02:18:15;;;;;;;0.82;0.63;;;2.70;99.90;;;;;;4916528;29;20054;-74
2023/03/15 02:21:27;;;;;;;0.80;0.50;;;2.70;99.90;;;;;;4917423;29;20028;-73
2023/03/15 02:24:48;;;;;;;1.25;0.80;;;2.60;99.90;;;;;;4909523;29;20094;-75
2023/03/15 02:27:21;;;;;;;0.50;0.50;;;2.50;99.90;;;;;;4992802;28;20045;-74
2023/03/15 02:29:46;;;;;;;0.63;0.50;;;2.40;99.90;;;;;;4976000;28;20382;-73
2023/03/15 02:32:12;;;;;;;0.55;0.40;;;2.40;99.90;;;;;;4992571;28;20062;-74
2023/03/15 02:34:38;;;;;;;0.30;0.20;;;2.40;99.90;;;;;;4992459;28;20101;-73
2023/03/15 02:37:04;;;;;;;4.47;1.23;;;2.30;99.90;;;;;;4971770;28;20496;-73
2023/03/15 02:39:30;;;;;;;0.43;0.40;;;2.30;99.90;;;;;;4972609;28;20502;-73
2023/03/15 02:41:58;;;;;;;2.00;0.77;;;2.20;99.90;;;;;;4992549;28;20061;-73
2023/03/15 02:44:38;;;;;;;1.25;0.90;;;2.20;99.90;;;;;;4973860;28;20038;-72
2023/03/15 02:47:11;;;;;;;0.73;0.73;;;2.20;99.90;;;;;;4954991;28;20042;-74
2023/03/15 02:49:43;;;;;;;0.52;0.40;;;2.20;99.90;;;;;;4969015;28;20042;-74
2023/03/15 02:52:11;;;;;;;5.28;1.13;;;2.20;99.90;;;;;;4971699;28;20038;-75
2023/03/15 02:54:38;;;;;;;1.95;1.02;;;2.30;99.90;;;;;;4975074;28;20029;-74
2023/03/15 02:57:04;;;;;;;1.85;1.08;;;2.40;99.90;;;;;;4992173;28;20057;-74
2023/03/15 02:59:29;;;;;;;3.08;0.73;;;2.40;99.90;;;;;;4990859;23;20057;-71
2023/03/15 03:01:55;;;;;;;1.13;0.60;;;2.40;99.90;;;;;;5007912;28;20029;-70
2023/03/15 03:04:21;;;;;;;1.20;0.47;;;2.30;99.90;;;;;;5004116;28;20041;-71
2023/03/15 03:06:47;;;;;;;1.98;0.73;;;2.30;99.90;;;;;;5003542;28;20030;-71
2023/03/15 03:09:12;;;;;;;4.18;0.80;;;2.30;99.90;;;;;;5018128;28;20040;-70
2023/03/15 03:11:38;;;;;;;2.25;1.02;;;2.30;99.90;;;;;;5023285;28;20034;-71
2023/03/15 03:14:04;;;;;;;0.73;0.40;;;2.40;99.90;;;;;;5023653;28;20366;-71
2023/03/15 03:16:31;;;;;;;1.55;1.08;;;2.40;99.90;;;;;;5003346;28;20029;-72
2023/03/15 03:18:57;;;;;;;1.95;1.55;;;2.20;99.90;;;;;;4998704;28;20040;-71
2023/03/15 03:21:23;;;;;;;4.65;0.63;;;2.00;99.90;;;;;;5005401;28;20511;-72
2023/03/15 03:23:48;;;;;;;6.00;2.03;;;2.00;99.90;;;;;;5023536;28;20029;-70
2023/03/15 03:26:17;;;;;;;1.95;1.00;;;2.00;99.90;;;;;;5022821;28;20033;-70
2023/03/15 03:28:46;;;;;;;4.55;1.42;;;1.90;99.90;;;;;;5023796;28;20037;-71
2023/03/15 03:31:18;;;;;;;2.75;1.75;;;1.80;99.90;;;;;;5023020;28;20396;-73
2023/03/15 03:33:44;;;;;;;2.83;0.70;;;1.70;99.90;;;;;;5000258;28;20108;-72
2023/03/15 03:36:11;;;;;;;0.43;0.35;;;1.70;99.90;;;;;;5023047;28;20025;-71
2023/03/15 03:38:40;;;;;;;2.33;1.08;;;1.70;99.90;;;;;;5023685;28;20037;-70
2023/03/15 03:41:07;;;;;;;2.08;1.08;;;1.80;99.90;;;;;;4989223;28;20425;-70
2023/03/15 03:43:33;;;;;;;9.27;1.00;;;1.80;99.90;;;;;;5017723;28;20498;-71
2023/03/15 03:45:59;;;;;;;14.00;1.58;;;1.70;99.90;;;;;;5005405;28;20044;-70
2023/03/15 03:48:25;;;;;;;3.40;1.23;;;1.80;99.90;;;;;;5002621;28;20441;-71
2023/03/15 03:50:51;;;;;;;0.93;0.65;;;1.80;99.90;;;;;;5004921;28;20369;-70
2023/03/15 03:53:17;;;;;;;2.92;0.80;;;1.80;99.90;;;;;;5024364;28;20037;-71
2023/03/15 03:55:43;;;;;;;0.63;0.52;;;1.80;99.90;;;;;;5003909;28;20068;-71
2023/03/15 03:58:09;;;;;;;1.13;0.75;;;1.80;99.90;;;;;;5004757;28;20030;-71
2023/03/15 04:00:35;;;;;;;1.05;0.55;;;1.80;99.90;;;;;;5018578;28;20515;-71
2023/03/15 04:03:01;;;;;;;1.08;0.93;;;1.70;99.90;;;;;;5026499;28;20125;-72
2023/03/15 04:05:28;;;;;;;13.73;2.08;;;1.70;99.90;;;;;;5019479;28;20105;-72
2023/03/15 04:07:53;;;;;;;1.33;0.60;;;1.70;99.90;;;;;;5009951;28;20040;-71
2023/03/15 04:10:25;;;;;;;1.10;0.60;;;1.80;99.90;;;;;;5018730;28;20061;-72
2023/03/15 04:12:56;;;;;;;0.80;0.80;;;1.80;99.90;;;;;;4992983;28;20133;-71
2023/03/15 04:15:23;;;;;;;2.67;1.00;;;1.70;99.90;;;;;;5025116;28;20281;-71
2023/03/15 04:17:54;;;;;;;7.20;0.88;;;1.80;99.90;;;;;;5010121;28;20076;-71
2023/03/15 04:20:22;;;;;;;0.65;0.55;;;1.80;99.90;;;;;;5002160;28;20461;-70
2023/03/15 04:22:48;;;;;;;2.75;0.95;;;1.70;99.90;;;;;;5027685;28;20065;-70
2023/03/15 04:25:19;;;;;;;5.78;0.38;;;1.70;99.90;;;;;;5018782;28;20053;-71
2023/03/15 04:27:45;;;;;;;0.30;0.20;;;1.60;99.90;;;;;;5026527;28;20033;-70
2023/03/15 04:30:11;;;;;;;1.00;0.73;;;1.40;99.90;;;;;;5015621;28;20436;-71
2023/03/15 04:32:37;;;;;;;2.00;0.95;;;1.30;99.90;;;;;;5032051;28;20037;-71
2023/03/15 04:35:04;;;;;;;0.47;0.47;;;1.20;99.90;;;;;;4998581;28;20092;-71
2023/03/15 04:37:31;;;;;;;2.00;1.45;;;1.10;99.90;;;;;;5031621;28;20443;-70
2023/03/15 04:39:57;;;;;;;0.55;0.40;;;1.00;99.90;;;;;;5004719;28;20041;-71
2023/03/15 04:42:24;;;;;;;0.77;0.55;;;1.00;99.90;;;;;;5029962;28;20034;-71
2023/03/15 04:44:52;;;;;;;0.95;0.68;;;0.90;99.90;;;;;;5017534;28;20053;-70
2023/03/15 04:47:19;;;;;;;1.50;1.13;;;0.90;99.90;;;;;;5030104;28;20037;-71
2023/03/15 04:49:45;;;;;;;1.50;1.05;;;0.90;99.90;;;;;;5000831;28;20103;-71
2023/03/15 04:52:11;;;;;;;1.48;0.68;;;0.90;99.90;;;;;;5028890;28;20037;-71
2023/03/15 04:54:38;;;;;;;6.78;0.80;;;0.90;99.90;;;;;;5024808;28;20042;-71
2023/03/15 04:57:04;;;;;;;1.98;0.70;;;0.90;99.90;;;;;;5010291;28;20109;-71
2023/03/15 04:59:30;;;;;;;2.10;1.77;;;0.90;99.90;;;;;;5025201;28;20116;-70
2023/03/15 05:01:55;;;;;;;1.17;0.82;;;0.90;99.90;;;;;;5022010;28;20438;-71
2023/03/15 05:04:21;;;;;;;3.85;0.70;;;0.90;99.90;;;;;;5029570;28;20065;-71
2023/03/15 05:06:47;;;;;;;4.72;0.80;;;0.90;99.90;;;;;;5022751;28;20030;-71
2023/03/15 05:09:17;;;;;;;1.80;1.10;;;1.00;99.90;;;;;;5011117;28;20484;-71
2023/03/15 05:11:45;;;;;;;2.05;1.30;;;1.00;99.90;;;;;;5023222;28;20057;-70
2023/03/15 05:14:11;;;;;;;5.70;2.28;;;1.00;99.90;;;;;;5028028;28;20040;-71
2023/03/15 05:16:37;;;;;;;0.80;0.70;;;1.00;99.90;;;;;;5021407;28;20427;-71
2023/03/15 05:19:03;;;;;;;8.60;2.03;;;1.10;99.90;;;;;;5009482;28;20040;-71
2023/03/15 05:21:28;;;;;;;2.40;0.95;;;1.20;99.90;;;;;;5025207;28;20556;-72
2023/03/15 05:23:54;;;;;;;2.72;1.30;;;1.30;99.90;;;;;;5025688;28;20038;-71
2023/03/15 05:26:20;;;;;;;2.10;1.25;;;1.30;99.90;;;;;;5025632;28;20072;-71
2023/03/15 05:28:46;;;;;;;1.88;1.15;;;1.40;99.90;;;;;;5024593;28;20465;-71
2023/03/15 05:31:11;;;;;;;2.55;1.80;;;1.40;99.90;;;;;;5007769;28;20492;-72
2023/03/15 05:33:39;;;;;;;0.95;0.82;;;1.40;99.90;;;;;;5024912;28;20045;-72
2023/03/15 05:36:05;;;;;;;4.63;1.63;;;1.40;99.90;;;;;;5025485;28;20060;-71
2023/03/15 05:38:31;;;;;;;4.55;1.63;;;1.40;99.90;;;;;;5005285;28;20054;-72
2023/03/15 05:40:56;;;;;;;6.28;2.22;;;1.50;99.90;;;;;;4963541;28;20145;-71
2023/03/15 05:43:22;;;;;;;2.53;1.38;;;1.50;99.90;;;;;;5024386;28;20036;-72
2023/03/15 05:45:48;;;;;;;3.70;1.23;;;1.50;99.90;;;;;;5025080;28;20032;-71
2023/03/15 05:48:15;;;;;;;3.70;1.35;;;1.50;99.90;;;;;;5024820;28;20030;-69
2023/03/15 05:50:41;;;;;;;3.85;1.88;;;1.50;99.90;;;;;;4993287;28;20041;-71
2023/03/15 05:53:06;;;;;;;3.13;1.30;;;1.50;99.90;;;;;;4986931;28;20038;-69
2023/03/15 05:55:32;;;;;;;5.22;2.22;;;1.50;99.90;;;;;;4999654;28;20022;-70
2023/03/15 05:57:58;;;;;;;2.40;1.88;;;1.60;99.90;;;;;;5024529;28;20087;-70
2023/03/15 06:00:24;;;;;;;7.00;2.22;;;1.60;99.90;;;;;;5011528;28;20046;-72
2023/03/15 06:02:49;;;;;;;6.40;2.67;;;1.60;99.90;;;;;;5024336;28;20029;-74
2023/03/15 06:05:15;;;;;;;4.78;2.50;;;1.60;99.90;;;;;;5020278;28;20026;-71
2023/03/15 06:07:41;;;;;;;3.83;1.95;;;1.60;99.90;;;;;;5022246;28;20025;-71
2023/03/15 06:10:07;;;;;;;13.45;1.50;;;1.60;99.90;;;;;;5027354;28;20045;-71
2023/03/15 06:12:33;;;;;;;3.22;1.50;;;1.70;99.90;;;;;;5030712;28;20029;-71
2023/03/15 06:14:59;;;;;;;2.55;1.98;;;1.70;99.90;;;;;;5022487;28;20034;-71
2023/03/15 06:17:25;;;;;;;5.25;1.65;;;1.70;99.90;;;;;;5000733;28;20646;-71
2023/03/15 06:19:50;;;;;;;4.40;1.60;;;1.80;99.90;;;;;;5009227;28;20556;-70
2023/03/15 06:22:19;;;;;;;8.25;2.55;;;1.70;99.90;;;;;;5020559;28;20520;-70
2023/03/15 06:24:45;;;;;;;5.30;1.30;;;1.80;99.90;;;;;;5027802;28;20091;-72
2023/03/15 06:27:11;;;;;;;3.38;1.15;;;1.80;99.90;;;;;;5025483;28;20018;-71
2023/03/15 06:29:37;;;;;;;4.15;1.50;;;1.90;99.90;;;;;;5029129;28;20131;-70
2023/03/15 06:32:03;;;;;;;5.43;2.97;;;1.90;99.90;;;;;;5004607;28;20436;-70
2023/03/15 06:34:29;;;;;;;8.82;2.72;;;1.80;99.90;;;;;;5028904;28;20033;-71
2023/03/15 06:36:55;;;;;;;2.40;1.30;;;1.90;99.90;;;;;;5019961;28;20034;-71
2023/03/15 06:39:22;;;;;;;4.45;2.60;;;1.90;99.90;;;;;;5027620;28;20488;-69
2023/03/15 06:41:48;;;;;;;2.40;1.98;;;2.00;99.90;;;;;;4996888;28;20033;-69
2023/03/15 06:44:13;;;;;;;8.70;1.83;;;2.10;99.90;;;;;;5026266;28;20029;-70
2023/03/15 06:46:39;;;;;;;14.00;1.80;;;2.10;99.90;;;;;;5004062;28;20041;-70
2023/03/15 06:49:05;;;;;;;3.25;1.45;;;2.20;99.90;;;;;;5025780;28;20036;-70
2023/03/15 06:51:31;;;;;;;2.47;1.55;;;2.30;99.90;;;;;;5003135;28;20088;-72
2023/03/15 06:53:57;;;;;;;2.65;1.60;;;2.30;99.90;;;;;;5023831;28;20777;-74
2023/03/15 06:56:22;;;;;;;3.70;1.50;;;2.40;99.90;;;;;;5017233;28;20404;-73
2023/03/15 06:58:48;;;;;;;3.58;1.73;;;2.40;99.90;;;;;;5024887;28;20124;-74
2023/03/15 07:01:14;;;;;;;11.75;2.47;;;2.50;99.90;;;;;;5002454;28;20080;-75
2023/03/15 07:03:41;;;;;;;3.70;1.45;;;2.50;99.90;;;;;;5020800;28;20025;-71
2023/03/15 07:06:07;;;;;;;11.05;1.50;;;2.60;99.90;;;;;;5005727;28;20029;-70
2023/03/15 07:08:33;;;;;;;5.20;2.67;;;2.60;99.90;;;;;;5011688;28;20508;-71
2023/03/15 07:10:59;;;;;;;11.38;2.15;;;2.60;99.90;;;;;;4983339;28;20034;-72
2023/03/15 07:13:25;;;;;;;3.40;1.30;;;2.60;99.90;;;;;;4997962;28;20030;-73
2023/03/15 07:15:53;;;;;;;2.35;1.63;;;2.60;99.90;;;;;;5014669;28;20034;-74
2023/03/15 07:18:19;;;;;;;10.18;3.35;;;2.60;99.90;;;;;;5022913;28;20040;-75
2023/03/15 07:20:44;;;;;;;3.50;2.25;;;2.60;99.90;;;;;;5007141;28;20037;-74
2023/03/15 07:23:10;;;;;;;2.42;1.60;;;2.60;99.90;;;;;;5022558;28;20112;-74
2023/03/15 07:25:36;;;;;;;4.38;2.17;;;2.60;99.90;;;;;;5023168;28;20109;-74
2023/03/15 07:28:02;;;;;;;2.08;1.88;;;2.70;99.90;;;;;;5022567;28;20499;-73
2023/03/15 07:30:27;;;;;;;5.20;2.05;;;2.80;99.90;;;;;;5016504;28;20038;-73
2023/03/15 07:32:53;;;;;;;3.63;1.98;;;2.90;99.90;;;;;;5004754;28;20036;-73
2023/03/15 07:35:19;;;;;;;6.72;1.88;;;3.00;99.90;;;;;;5023470;28;20034;-73
2023/03/15 07:37:45;;;;;;;3.88;1.40;;;3.00;99.90;;;;;;5021886;28;20044;-73
2023/03/15 07:40:12;;;;;;;3.90;1.80;;;3.00;99.90;;;;;;5024679;28;20030;-73
2023/03/15 07:42:41;;;;;;;2.65;1.38;;;3.00;99.90;;;;;;5020842;28;20417;-73
2023/03/15 07:45:08;;;;;;;4.25;1.73;;;3.00;99.90;;;;;;5004081;28;20261;-73
2023/03/15 07:47:35;;;;;;;9.48;2.63;;;3.00;99.90;;;;;;4988517;28;20113;-73
2023/03/15 07:50:01;;;;;;;3.03;1.88;;;3.10;99.90;;;;;;5024040;28;20034;-73
2023/03/15 07:52:27;;;;;;;2.58;1.45;;;3.20;99.90;;;;;;5019271;28;20476;-74
2023/03/15 07:54:52;;;;;;;1.85;0.85;;;3.20;99.90;;;;;;5026229;28;20045;-74
2023/03/15 07:57:18;;;;;;;6.43;2.38;;;3.30;99.90;;;;;;5016175;28;20100;-73
2023/03/15 07:59:44;;;;;;;2.30;1.20;;;3.30;99.90;;;;;;5026907;28;20170;-73
2023/03/15 08:02:13;;;;;;;3.03;1.10;;;3.30;99.90;;;;;;5015522;28;20048;-73
2023/03/15 08:04:39;;;;;;;6.13;1.00;;;3.20;99.90;;;;;;5010487;28;20037;-75
2023/03/15 08:07:06;;;;;;;7.93;1.88;;;3.30;99.90;;;;;;5018935;28;20030;-73
2023/03/15 08:09:33;;;;;;;1.70;0.90;;;3.40;99.90;;;;;;5009472;28;20029;-73
2023/03/15 08:11:59;;;;;;;2.78;1.33;;;3.50;99.90;;;;;;5011622;28;20037;-73
2023/03/15 08:14:26;;;;;;;4.75;1.15;;;3.50;99.90;;;;;;5009059;28;20052;-73
2023/03/15 08:16:52;;;;;;;4.70;1.55;;;3.70;99.90;;;;;;4980679;28;20022;-73
2023/03/15 08:19:17;;;;;;;2.10;0.73;;;3.60;99.90;;;;;;5021636;28;20386;-74
2023/03/15 08:21:44;;;;;;;6.15;1.13;;;3.70;99.90;;;;;;5012626;28;20033;-74
2023/03/15 08:24:14;;;;;;;9.30;1.17;;;3.60;99.90;;;;;;4987670;28;20827;-74
2023/03/15 08:26:42;;;;;;;2.28;1.08;;;3.50;99.90;;;;;;4993265;28;20045;-73
2023/03/15 08:29:08;;;;;;;3.80;1.83;;;3.60;99.90;;;;;;5022046;28;20155;-77
2023/03/15 08:31:33;;;;;;;1.73;0.93;;;3.70;99.90;;;;;;4979785;28;20030;-73
2023/03/15 08:34:00;;;;;;;6.38;0.75;;;3.80;99.90;;;;;;5021628;28;20065;-73
2023/03/15 08:36:25;;;;;;;1.80;0.73;;;3.90;99.90;;;;;;5022899;28;20375;-71
2023/03/15 08:38:51;;;;;;;0.73;0.68;;;3.90;99.90;;;;;;5021781;28;20753;-72
2023/03/15 08:41:17;;;;;;;3.22;0.82;;;3.80;99.90;;;;;;5024157;28;20058;-72
2023/03/15 08:43:43;;;;;;;1.92;1.27;;;3.90;99.90;;;;;;5020617;28;20541;-72
2023/03/15 08:46:08;;;;;;;7.32;1.23;;;3.90;99.90;;;;;;5025273;28;20032;-72
2023/03/15 08:48:34;;;;;;;3.25;1.33;;;3.90;99.90;;;;;;5019627;28;20045;-75
2023/03/15 08:51:05;;;;;;;2.58;1.30;;;3.90;99.90;;;;;;5015356;28;20040;-72
2023/03/15 08:53:31;;;;;;;8.05;1.38;;;3.90;99.90;;;;;;5018929;28;20042;-72
2023/03/15 08:55:57;;;;;;;4.93;1.67;;;3.60;99.90;;;;;;5025711;28;20065;-72
2023/03/15 08:58:23;;;;;;;2.05;1.23;;;3.50;99.90;;;;;;5000387;28;20033;-72
2023/03/15 09:00:50;;;;;;;5.18;1.65;;;3.30;99.90;;;;;;5010074;28;20388;-73
2023/03/15 09:03:18;;;;;;;1.65;1.50;;;3.30;99.90;;;;;;5000596;28;20633;-72
2023/03/15 09:05:44;;;;;;;9.98;2.83;;;3.30;99.90;;;;;;5026577;28;20033;-73
2023/03/15 09:08:10;;;;;;;6.28;1.35;;;3.40;99.90;;;;;;5012490;28;20118;-73
2023/03/15 09:10:35;;;;;;;5.60;1.05;;;3.50;99.90;;;;;;5027816;28;20113;-73
2023/03/15 09:13:02;;;;;;;10.70;1.40;;;3.50;99.90;;;;;;4994490;28;20109;-73
2023/03/15 09:15:27;;;;;;;10.48;1.67;;;3.60;99.90;;;;;;5027654;28;20037;-74
2023/03/15 09:17:53;;;;;;;1.95;1.20;;;3.20;99.90;;;;;;5004755;28;20026;-73
2023/03/15 09:20:21;;;;;;;2.03;1.63;;;2.80;99.90;;;;;;5020181;28;20112;-73
2023/03/15 09:22:53;;;;;;;3.75;1.08;;;2.60;99.90;;;;;;5003472;28;20037;-73
2023/03/15 09:25:19;;;;;;;2.13;1.00;;;2.50;99.90;;;;;;5011487;28;20048;-74
2023/03/15 09:27:45;;;;;;;0.98;0.70;;;2.20;99.90;;;;;;5000080;28;20069;-74
2023/03/15 09:30:12;;;;;;;3.80;1.85;;;2.20;99.90;;;;;;5009859;28;20461;-72
2023/03/15 09:32:39;;;;;;;0.93;0.68;;;2.10;99.90;;;;;;5024323;28;20120;-73
2023/03/15 09:35:08;;;;;;;4.07;1.65;;;2.20;99.90;;;;;;5026662;28;20076;-74
2023/03/15 09:37:34;;;;;;;7.03;1.92;;;2.30;99.90;;;;;;5007031;28;20431;-71
2023/03/15 09:40:00;;;;;;;2.10;0.90;;;2.30;99.90;;;;;;5026276;28;20109;-73
2023/03/15 09:43:05;;;;;;;1.45;0.73;;;2.40;99.90;;;;;;5025092;28;20499;-78
2023/03/15 09:45:49;;;;;;;2.97;0.88;;;2.40;99.90;;;;;;5012588;28;20033;-75
2023/03/15 09:48:56;;;;;;;1.17;0.82;;;2.30;99.90;;;;;;5000860;28;20445;-71
2023/03/15 09:51:58;;;;;;;3.03;0.95;;;2.40;99.90;;;;;;5009571;28;20034;-75
2023/03/15 09:55:03;;;;;;;3.00;0.85;;;2.40;99.90;;;;;;5008177;28;20127;-73
2023/03/15 09:57:47;;;;;;;2.38;1.33;;;2.50;99.90;;;;;;4999339;28;20045;-73
2023/03/15 10:00:21;;;;;;;6.57;1.42;;;2.60;99.90;;;;;;4992329;28;20136;-74
2023/03/15 10:03:01;;;;;;;3.63;1.75;;;2.60;99.90;;;;;;5020097;28;20029;-74
2023/03/15 10:05:48;;;;;;;2.42;1.25;;;2.80;99.90;;;;;;5011915;28;20056;-74
2023/03/15 10:08:17;;;;;;;4.55;1.65;;;2.90;99.90;;;;;;5003584;28;20036;-74
2023/03/15 10:11:17;;;;;;;13.63;1.95;;;3.00;99.90;;;;;;5012825;28;20484;-73
2023/03/15 10:14:01;;;;;;;3.05;0.70;;;3.00;99.90;;;;;;5012901;28;20076;-74
2023/03/15 10:16:38;;;;;;;2.20;1.83;;;3.00;99.90;;;;;;5004712;28;20405;-74
2023/03/15 10:19:25;;;;;;;1.98;1.20;;;3.10;99.90;;;;;;5024119;28;20029;-71
2023/03/15 10:22:01;;;;;;;6.78;1.00;;;3.20;99.90;;;;;;5005957;28;20579;-73
2023/03/15 10:24:43;;;;;;;5.10;1.95;;;3.30;99.90;;;;;;5006291;28;20037;-71
2023/03/15 10:27:23;;;;;;;7.28;1.33;;;3.40;99.90;;;;;;5005861;28;20090;-72
2023/03/15 10:29:53;;;;;;;1.77;1.17;;;3.50;99.90;;;;;;5020350;28;20041;-73
2023/03/15 10:32:26;;;;;;;2.53;1.88;;;3.50;99.90;;;;;;5001511;28;20029;-73
2023/03/15 10:34:55;;;;;;;1.75;1.13;;;3.40;99.90;;;;;;5006623;28;20036;-73
2023/03/15 10:37:24;;;;;;;2.13;1.23;;;3.40;99.90;;;;;;5025301;28;20037;-74
2023/03/15 10:39:58;;;;;;;2.03;0.98;;;3.60;99.90;;;;;;5005850;28;20211;-71
2023/03/15 10:42:31;;;;;;;3.60;1.20;;;3.70;99.90;;;;;;5007171;28;20067;-73
2023/03/15 10:45:10;;;;;;;4.32;1.92;;;3.80;99.90;;;;;;4999928;28;20748;-73
2023/03/15 10:47:43;;;;;;;4.88;1.55;;;3.90;99.90;;;;;;5001650;28;20033;-76
2023/03/15 10:50:15;;;;;;;2.75;1.33;;;3.90;99.90;;;;;;5001102;28;20030;-74
2023/03/15 10:52:44;;;;;;;12.32;1.70;;;3.90;99.90;;;;;;4997267;28;20044;-75
2023/03/15 10:55:19;;;;;;;8.57;1.30;;;3.70;99.90;;;;;;5008329;28;20033;-75
2023/03/15 10:58:10;;;;;;;2.20;1.10;;;3.70;99.90;;;;;;5021608;28;20056;-73
2023/03/15 11:00:36;;;;;;;14.27;3.00;;;3.70;99.90;;;;;;5029675;28;20025;-73
2023/03/15 11:03:22;;;;;;;4.40;1.98;;;3.70;99.90;;;;;;5018805;28;20029;-76
2023/03/15 11:05:54;;;;;;;1.95;1.30;;;3.80;99.90;;;;;;5011509;28;20060;-75
2023/03/15 11:08:36;;;;;;;2.03;1.40;;;3.70;99.90;;;;;;5002487;28;20029;-72
2023/03/15 11:11:02;;;;;;;2.38;1.60;;;3.80;99.90;;;;;;4980397;28;20077;-76
2023/03/15 11:13:36;;;;;;;2.08;1.33;;;3.80;99.90;;;;;;5019310;28;20116;-73
2023/03/15 11:16:14;;;;;;;10.63;1.75;;;3.80;99.90;;;;;;5024838;28;20032;-75
2023/03/15 11:18:52;;;;;;;2.80;1.50;;;3.80;99.90;;;;;;5019894;28;20042;-75
2023/03/15 11:21:21;;;;;;;4.22;1.55;;;3.80;99.90;;;;;;4993163;28;20510;-76
2023/03/15 11:23:49;;;;;;;7.15;2.50;;;3.90;99.90;;;;;;5004920;28;20049;-75
2023/03/15 11:26:24;;;;;;;10.93;2.90;;;3.90;99.90;;;;;;5004211;28;20433;-74
2023/03/15 11:29:22;;;;;;;3.80;2.10;;;4.10;99.90;;;;;;4993779;28;20041;-75
2023/03/15 11:31:50;;;;;;;3.08;2.10;;;4.10;99.90;;;;;;5012224;28;20041;-77
2023/03/15 11:34:26;;;;;;;4.60;2.55;;;4.20;99.90;;;;;;5004631;28;20034;-75
2023/03/15 11:37:02;;;;;;;4.10;2.53;;;4.20;99.90;;;;;;5023858;28;20393;-74
2023/03/15 11:39:51;;;;;;;3.00;2.00;;;4.10;99.90;;;;;;5021428;28;20850;-75
2023/03/15 11:43:15;;;;;;;5.03;2.88;;;4.20;99.90;;;;;;5007294;28;20029;-73
2023/03/15 11:45:52;;;;;;;13.32;2.55;;;4.40;99.90;;;;;;4952373;28;20468;-81
2023/03/15 11:48:28;;;;;;;6.18;2.10;;;4.40;99.90;;;;;;4997754;28;20034;-72
2023/03/15 11:50:57;;;;;;;8.18;2.75;;;4.40;99.90;;;;;;4993122;28;20433;-74
2023/03/15 11:53:33;;;;;;;3.10;2.35;;;4.40;99.90;;;;;;5001249;28;20029;-76
2023/03/15 11:56:24;;;;;;;6.20;2.47;;;4.30;99.90;;;;;;4993474;28;20044;-78
2023/03/15 11:59:17;;;;;;;5.25;2.80;;;4.50;99.90;;;;;;5005606;28;20515;-75
2023/03/15 12:01:50;;;;;;;7.47;2.72;;;4.70;99.90;;;;;;4973423;28;20509;-75
2023/03/15 12:04:31;;;;;;;4.43;1.90;;;4.70;99.90;;;;;;4991481;28;20038;-75
2023/03/15 12:07:02;;;;;;;3.45;2.05;;;4.60;99.90;;;;;;5005931;28;20033;-75
2023/03/15 12:09:36;;;;;;;2.20;1.50;;;4.70;99.90;;;;;;4990630;28;20088;-74
2023/03/15 12:12:23;;;;;;;6.38;2.47;;;4.90;99.90;;;;;;5008465;28;21128;-74
2023/03/15 12:15:22;;;;;;;4.25;2.65;;;4.80;99.90;;;;;;5000438;28;20131;-74
2023/03/15 12:17:55;;;;;;;8.85;3.38;;;4.80;99.90;;;;;;4955757;28;20057;-75
2023/03/15 12:20:41;;;;;;;8.20;3.03;;;5.00;99.90;;;;;;5002215;28;20482;-74
2023/03/15 12:23:16;;;;;;;5.75;2.42;;;5.20;99.90;;;;;;4994714;28;20026;-73
2023/03/15 12:26:17;;;;;;;6.38;2.08;;;5.20;99.90;;;;;;5018034;28;20025;-73
2023/03/15 12:28:57;;;;;;;3.93;2.23;;;5.30;99.90;;;;;;4953283;28;20066;-73
2023/03/15 12:31:24;;;;;;;5.57;1.75;;;5.50;99.90;;;;;;5001854;28;20311;-74
2023/03/15 12:33:57;;;;;;;3.95;2.55;;;5.80;99.90;;;;;;5029746;28;20038;-74
2023/03/15 12:36:44;;;;;;;3.35;1.60;;;5.90;99.90;;;;;;4997266;28;20561;-73
2023/03/15 12:39:16;;;;;;;2.08;1.35;;;6.00;99.90;;;;;;4975503;28;20030;-74
2023/03/15 12:41:47;;;;;;;2.72;1.95;;;6.20;99.90;;;;;;5020346;28;20058;-74
2023/03/15 12:44:31;;;;;;;4.53;1.80;;;6.50;99.90;;;;;;5026979;28;20560;-74
2023/03/15 12:47:02;;;;;;;3.47;1.85;;;6.50;99.90;;;;;;5008348;28;20048;-74
2023/03/15 12:49:32;;;;;;;4.85;1.83;;;6.30;99.90;;;;;;4986301;28;20392;-75
2023/03/15 12:52:10;;;;;;;2.78;1.67;;;6.10;99.90;;;;;;4993640;28;20543;-76
2023/03/15 12:55:04;;;;;;;3.67;1.80;;;6.20;99.90;;;;;;5024828;28;20068;-78
2023/03/15 12:57:43;;;;;;;4.47;2.03;;;6.20;99.90;;;;;;5008326;28;20112;-74
2023/03/15 13:00:21;;;;;;;3.50;1.80;;;6.40;99.90;;;;;;5004612;28;20489;-75
2023/03/15 13:03:03;;;;;;;4.10;1.83;;;6.50;99.90;;;;;;5007832;28;20030;-76
2023/03/15 13:05:58;;;;;;;10.45;2.38;;;6.60;99.90;;;;;;5008787;28;20040;-75
2023/03/15 13:08:29;;;;;;;2.53;1.20;;;6.80;99.90;;;;;;5011975;28;20107;-75
2023/03/15 13:11:04;;;;;;;5.10;2.83;;;7.30;99.90;;;;;;5006015;28;20123;-76
2023/03/15 13:13:49;;;;;;;3.85;2.30;;;7.60;99.90;;;;;;5030418;28;20580;-74